Terminal Aerodrome Forecast
Issued by NWS

Home | Current Version | Previous Version | Graphics & Text | Print | Product List | Glossary On
Versions: 1 2 3 4 5 6 7 8 9 10 11 12 13 14 15 16 17 18 19 20 21 22 23 24 25 26 27 28 29 30
000
FTUS45 KGGW 232300
TAFGDV
TAF
KGDV 232320Z 2400/2424 11011KT P6SM BKN070
     FM240300 09007KT P6SM BKN060
     FM240900 05007KT P6SM BKN015 OVC035
     FM241200 03007KT P6SM VCSH FEW003 BKN007 OVC023
     FM241500 06011KT 6SM -SHRA BKN024 OVC030
      AMD LTD TO CLD VIS AND WIND=

USA.gov is the U.S. government's official web portal to all federal, state and local government web resources and services.